Ladd AAF Airfield
PAFB : now visible

Aeroporto :











RITROVATECI SU...

 
LOGIN :

Iscrizione | Disclaimer

   EN    FR    IT 

 









Sommario :    VFR   VFR Marginale   IFR   IFR Intensivo   IFR Molto Intensivo
Visibilità : 
Base nubi : 
>= 8 km
>= 3000ft
5 / 8 km
1000 / 3000 ft
1500m / 5 km
500 / 1000 ft
800 / 1500m
200 / 500 ft
< 800m
< 200 ft
Simboli :   Temporali  Nebbia  Neve Forte  Precipitazioni Forti  Vento > 20 kt






- Altitudine del aeroporto : 454 ft
- Codice IATA : FBK


PAFB - Ladd AAF

ULTIMO METAR :
  • 021218Z AUTO 00000KT 3SM BR CLR 07/07 A2953 RMK AO2 SLP003

METARs OBSOLETI :
  • 021213Z AUTO 00000KT 2 3/4SM BR CLR 07/07 A2953 RMK AO2 VIS 2V5 SLP003 $
  • 021203Z AUTO 00000KT 1 3/4SM BR CLR 07/07 A2953 RMK AO2 VIS 1V1 3/4 SLP003 $
  • 021153Z AUTO 00000KT 1 3/4SM BR CLR 08/08 A2953 RMK AO2 VIS 1 3/4V7 SLP002 $
  • 021058Z AUTO 00000KT 10SM BKN095 OVC120 10/09 A2953 RMK AO2 SLP002 T00950093 $
  • 020958Z AUTO 03004KT 10SM BKN100 10/10 A2953 RMK AO2 SLP002 T01010098 $

TAF TAF PAFB
Valido dal 02 a 07 ore il 03 a 13 ore UTC


020700Z 0207/0313 VRB06KT 9999 VCSH SCT045 BKN070 QNH2949INS
BECMG 0216/0217 04012KT 9999 NSW BKN060 BKN100 QNH2953INS
TEMPO 0300/0303 VCTS BKN050CB
BECMG 0309/0310 VRB06KT 9999 FEW030 QNH2965INS TX18/0223Z TN11/0213Z
FIR PAZA / America del Nord



MetMap, La meteo Aeronautica in un colpo d'occhio ! - Copyright ORBIFLY Dicembre 2007 - Disclaimer

ORBIFLY MET'MAP TEAM :

Programmazione e sviluppo : Alexandra Zaïnal
Concezione : Baudouin d'Aumeries
Aiuto per la programmazione : Marc-Olivier Méhu
Supporto tecnico e logistico : Manuel Goepfert
Aiuto per la traduzione : Arnaldo La Scala

Contatto : metmap@orbifly.com




FONTI E CREDITI :

   NOAA       Earth
Advisory